Time;durP1;ratioP1;P1;durP2;ratioP2;P2;SDS_P1;SDS_P2;PMS_P1;PMS_P2;Temp;Humidity;BMP_temperature;BMP_pressure;BME280_temperature;BME280_humidity;BME280_pressure;Samples;Min_cycle;Max_cycle;Signal;HPM_P1;HPM_P2
2021/10/10 00:00:52;;;;;;;14.57;8.57;;;12.40;99.90;;;;;;4128396;28;20054;-72
2021/10/10 00:02:52;;;;;;;13.43;8.48;;;12.30;99.90;;;;;;4138451;28;20033;-73
2021/10/10 00:04:53;;;;;;;12.25;8.05;;;12.30;99.90;;;;;;4136103;28;20429;-73
2021/10/10 00:06:53;;;;;;;10.35;7.35;;;12.30;99.90;;;;;;4136140;28;20951;-72
2021/10/10 00:08:54;;;;;;;11.75;7.43;;;12.20;99.90;;;;;;4131495;28;20046;-73
2021/10/10 00:10:54;;;;;;;11.57;7.43;;;12.20;99.90;;;;;;4128195;28;20040;-73
2021/10/10 00:12:55;;;;;;;10.77;6.53;;;12.20;99.90;;;;;;4135258;28;20030;-73
2021/10/10 00:14:56;;;;;;;11.98;7.43;;;12.10;99.90;;;;;;4139382;28;20064;-73
2021/10/10 00:16:56;;;;;;;10.43;7.05;;;12.10;99.90;;;;;;4128965;28;20038;-73
2021/10/10 00:18:57;;;;;;;10.27;7.35;;;12.10;99.90;;;;;;4133977;28;20034;-72
2021/10/10 00:20:58;;;;;;;11.15;7.32;;;12.10;99.90;;;;;;4138403;28;20045;-73
2021/10/10 00:22:58;;;;;;;13.13;8.32;;;12.10;99.90;;;;;;4127111;28;20046;-72
2021/10/10 00:24:59;;;;;;;11.93;7.82;;;12.00;99.90;;;;;;4126930;28;20030;-73
2021/10/10 00:26:59;;;;;;;12.55;8.27;;;12.00;99.90;;;;;;4129396;28;20039;-73
2021/10/10 00:29:00;;;;;;;13.18;7.60;;;12.00;99.90;;;;;;4129934;28;20031;-73
2021/10/10 00:31:01;;;;;;;12.63;8.13;;;11.90;99.90;;;;;;4131801;28;20076;-73
2021/10/10 00:33:01;;;;;;;13.48;8.02;;;11.90;99.90;;;;;;4133691;28;20042;-72
2021/10/10 00:35:03;;;;;;;12.27;7.57;;;11.90;99.90;;;;;;4130696;28;20034;-72
2021/10/10 00:37:04;;;;;;;11.95;7.95;;;11.90;99.90;;;;;;4126796;28;20037;-72
2021/10/10 00:39:05;;;;;;;16.15;8.93;;;11.90;99.90;;;;;;4131416;28;20125;-73
2021/10/10 00:41:06;;;;;;;14.05;9.10;;;11.90;99.90;;;;;;4128507;28;20045;-73
2021/10/10 00:43:07;;;;;;;13.50;9.40;;;11.90;99.90;;;;;;4135265;28;20478;-72
2021/10/10 00:45:08;;;;;;;13.23;8.52;;;11.90;99.90;;;;;;4138137;28;20044;-73
2021/10/10 00:47:10;;;;;;;14.35;8.57;;;11.90;99.90;;;;;;4137815;28;20041;-73
2021/10/10 00:49:10;;;;;;;13.10;8.87;;;11.90;99.90;;;;;;4131354;28;20133;-73
2021/10/10 00:51:11;;;;;;;12.63;8.43;;;11.90;99.90;;;;;;4136357;28;20030;-73
2021/10/10 00:53:16;;;;;;;13.15;8.10;;;11.90;99.90;;;;;;4138490;28;20026;-73
2021/10/10 00:55:20;;;;;;;14.18;8.18;;;11.80;99.90;;;;;;4140149;28;20042;-73
2021/10/10 00:57:23;;;;;;;13.20;8.68;;;11.80;99.90;;;;;;4138554;28;20072;-73
2021/10/10 00:59:25;;;;;;;14.48;8.88;;;11.80;99.90;;;;;;4136523;28;20065;-73
2021/10/10 01:01:29;;;;;;;14.90;8.90;;;11.80;99.90;;;;;;4135459;28;20048;-73
2021/10/10 01:03:30;;;;;;;15.23;8.98;;;11.70;99.90;;;;;;4138746;28;20125;-72
2021/10/10 01:05:31;;;;;;;12.35;8.25;;;11.70;99.90;;;;;;4136341;28;20026;-73
2021/10/10 01:07:32;;;;;;;12.45;8.55;;;11.70;99.90;;;;;;4138704;28;20497;-73
2021/10/10 01:09:36;;;;;;;11.75;7.53;;;11.70;99.90;;;;;;4139362;28;20563;-72
2021/10/10 01:11:37;;;;;;;11.38;6.97;;;11.70;99.90;;;;;;4131192;28;20410;-72
2021/10/10 01:13:39;;;;;;;10.60;7.38;;;11.70;99.90;;;;;;4130384;28;20038;-73
2021/10/10 01:15:39;;;;;;;12.27;7.15;;;11.70;99.90;;;;;;4140000;28;20038;-73
2021/10/10 01:17:40;;;;;;;12.65;7.88;;;11.70;99.90;;;;;;4136125;28;20026;-73
2021/10/10 01:19:43;;;;;;;13.77;7.68;;;11.70;99.90;;;;;;4137040;28;20034;-73
2021/10/10 01:21:44;;;;;;;12.25;7.93;;;11.70;99.90;;;;;;4135967;28;20110;-72
2021/10/10 01:23:45;;;;;;;12.02;7.10;;;11.70;99.90;;;;;;4137323;28;20022;-73
2021/10/10 01:25:45;;;;;;;12.40;7.57;;;11.70;99.90;;;;;;4131220;28;20544;-73
2021/10/10 01:27:46;;;;;;;10.90;7.78;;;11.70;99.90;;;;;;4139303;28;20033;-73
2021/10/10 01:29:46;;;;;;;13.75;9.02;;;11.60;99.90;;;;;;4123127;28;20498;-73
2021/10/10 01:31:47;;;;;;;13.30;8.45;;;11.60;99.90;;;;;;4128921;28;20041;-73
2021/10/10 01:33:48;;;;;;;16.42;9.50;;;11.60;99.90;;;;;;4129541;28;20037;-73
2021/10/10 01:35:48;;;;;;;14.15;9.15;;;11.60;99.90;;;;;;4130332;28;20425;-73
2021/10/10 01:37:49;;;;;;;15.80;9.38;;;11.60;99.90;;;;;;4134844;28;20054;-73
2021/10/10 01:39:50;;;;;;;14.90;9.63;;;11.60;99.90;;;;;;4122679;28;20391;-72
2021/10/10 01:41:50;;;;;;;14.88;9.80;;;11.60;99.90;;;;;;4137832;28;20025;-73
2021/10/10 01:43:51;;;;;;;15.13;9.45;;;11.50;99.90;;;;;;4131272;28;20113;-73
2021/10/10 01:45:51;;;;;;;19.92;10.23;;;11.50;99.90;;;;;;4136461;28;20027;-73
2021/10/10 01:47:52;;;;;;;14.65;9.77;;;11.50;99.90;;;;;;4129786;28;20531;-72
2021/10/10 01:49:53;;;;;;;13.88;8.85;;;11.50;99.90;;;;;;4125475;28;20045;-73
2021/10/10 01:51:54;;;;;;;14.27;9.00;;;11.50;99.90;;;;;;4125245;28;20053;-72
2021/10/10 01:53:54;;;;;;;12.02;8.25;;;11.50;99.90;;;;;;4137362;28;20034;-72
2021/10/10 01:55:55;;;;;;;14.18;9.07;;;11.50;99.90;;;;;;4136397;28;20043;-72
2021/10/10 01:57:56;;;;;;;12.98;8.88;;;11.50;99.90;;;;;;4135734;28;20050;-73
2021/10/10 01:59:57;;;;;;;13.32;8.68;;;11.40;99.90;;;;;;4133059;28;20049;-73
2021/10/10 02:01:57;;;;;;;12.63;8.80;;;11.40;99.90;;;;;;4135689;28;20030;-73
2021/10/10 02:03:58;;;;;;;12.43;8.35;;;11.40;99.90;;;;;;4136382;28;20058;-72
2021/10/10 02:05:58;;;;;;;13.13;8.80;;;11.40;99.90;;;;;;4138793;28;20081;-73
2021/10/10 02:07:59;;;;;;;11.15;8.02;;;11.30;99.90;;;;;;4136784;28;20038;-73
2021/10/10 02:10:01;;;;;;;12.40;8.05;;;11.30;99.90;;;;;;4136656;28;20034;-73
2021/10/10 02:12:02;;;;;;;17.80;7.35;;;11.30;99.90;;;;;;4135716;28;20471;-73
2021/10/10 02:14:02;;;;;;;15.40;8.65;;;11.30;99.90;;;;;;4133726;28;20066;-73
2021/10/10 02:16:03;;;;;;;12.38;8.20;;;11.30;99.90;;;;;;4112474;28;20049;-72
2021/10/10 02:18:04;;;;;;;14.80;8.70;;;11.30;99.90;;;;;;4132127;28;20641;-72
2021/10/10 02:20:06;;;;;;;11.77;7.97;;;11.20;99.90;;;;;;4137142;28;20038;-73
2021/10/10 02:22:07;;;;;;;10.90;7.90;;;11.20;99.90;;;;;;4135833;28;20105;-73
2021/10/10 02:24:07;;;;;;;13.05;8.43;;;11.20;99.90;;;;;;4135391;28;20103;-73
2021/10/10 02:26:08;;;;;;;12.02;8.05;;;11.20;99.90;;;;;;4137644;28;20056;-73
2021/10/10 02:28:08;;;;;;;13.63;8.57;;;11.20;99.90;;;;;;4136415;28;20045;-73
2021/10/10 02:30:09;;;;;;;14.57;9.27;;;11.20;99.90;;;;;;4136404;28;20034;-72
2021/10/10 02:32:10;;;;;;;16.75;9.88;;;11.20;99.90;;;;;;4133242;28;20034;-73
2021/10/10 02:34:12;;;;;;;14.85;9.18;;;11.20;99.90;;;;;;4137004;28;20717;-73
2021/10/10 02:36:12;;;;;;;15.87;9.57;;;11.20;99.90;;;;;;4133804;28;20526;-73
2021/10/10 02:38:14;;;;;;;14.80;9.40;;;11.20;99.90;;;;;;4133846;28;20089;-73
2021/10/10 02:40:15;;;;;;;13.70;9.15;;;11.10;99.90;;;;;;4137225;28;20038;-73
2021/10/10 02:42:15;;;;;;;14.05;9.45;;;11.20;99.90;;;;;;4136245;28;20577;-73
2021/10/10 02:44:16;;;;;;;14.20;9.63;;;11.20;99.90;;;;;;4118364;28;20109;-73
2021/10/10 02:46:17;;;;;;;15.90;9.68;;;11.20;99.90;;;;;;4133753;28;20046;-72
2021/10/10 02:48:17;;;;;;;15.40;9.95;;;11.20;99.90;;;;;;4132334;28;20052;-73
2021/10/10 02:50:18;;;;;;;16.27;9.55;;;11.10;99.90;;;;;;4135104;28;20038;-73
2021/10/10 02:52:21;;;;;;;16.15;10.20;;;11.10;99.90;;;;;;4133062;28;20104;-73
2021/10/10 02:54:22;;;;;;;14.43;9.10;;;11.10;99.90;;;;;;4136428;28;20522;-73
2021/10/10 02:56:22;;;;;;;17.75;9.00;;;11.10;99.90;;;;;;4138290;28;20072;-73
2021/10/10 02:58:23;;;;;;;14.55;9.30;;;11.10;99.90;;;;;;4136001;28;20076;-73
2021/10/10 03:00:23;;;;;;;14.27;9.50;;;11.00;99.90;;;;;;4135757;28;20501;-73
2021/10/10 03:02:24;;;;;;;15.70;9.93;;;11.10;99.90;;;;;;4136488;28;20119;-73
2021/10/10 03:04:24;;;;;;;19.73;9.30;;;11.10;99.90;;;;;;4138525;28;20540;-73
2021/10/10 03:06:25;;;;;;;15.30;9.50;;;11.00;99.90;;;;;;4137888;28;20209;-73
2021/10/10 03:08:26;;;;;;;14.43;8.82;;;11.00;99.90;;;;;;4135919;28;20117;-73
2021/10/10 03:10:26;;;;;;;12.65;7.93;;;11.00;99.90;;;;;;4134919;28;20044;-73
2021/10/10 03:12:27;;;;;;;15.98;9.02;;;11.00;99.90;;;;;;4133956;28;20052;-73
2021/10/10 03:14:27;;;;;;;13.13;8.55;;;11.00;99.90;;;;;;4134102;28;20033;-73
2021/10/10 03:16:28;;;;;;;14.25;8.20;;;11.00;99.90;;;;;;4136139;28;20038;-73
2021/10/10 03:18:29;;;;;;;15.88;9.30;;;11.00;99.90;;;;;;4126802;28;20642;-73
2021/10/10 03:20:29;;;;;;;13.55;8.07;;;11.00;99.90;;;;;;4122433;28;20046;-73
2021/10/10 03:22:30;;;;;;;14.43;8.80;;;11.00;99.90;;;;;;4130763;28;20026;-73
2021/10/10 03:24:30;;;;;;;15.23;8.60;;;11.00;99.90;;;;;;4127444;28;20499;-73
2021/10/10 03:26:31;;;;;;;14.82;8.52;;;11.00;99.90;;;;;;4128879;28;20070;-73
2021/10/10 03:28:31;;;;;;;14.15;8.50;;;11.00;99.90;;;;;;4126629;28;20762;-73
2021/10/10 03:30:32;;;;;;;10.38;7.25;;;11.00;99.90;;;;;;4126642;28;20105;-73
2021/10/10 03:32:33;;;;;;;13.45;7.75;;;11.00;99.90;;;;;;4127433;28;20034;-73
2021/10/10 03:34:33;;;;;;;11.00;7.05;;;11.10;99.90;;;;;;4133716;28;20073;-73
2021/10/10 03:36:34;;;;;;;13.40;7.72;;;11.00;99.90;;;;;;4127353;28;20043;-73
2021/10/10 03:38:34;;;;;;;13.20;8.40;;;11.00;99.90;;;;;;4132364;28;20642;-73
2021/10/10 03:40:35;;;;;;;11.68;7.60;;;11.00;99.90;;;;;;4122195;28;20099;-73
2021/10/10 03:42:36;;;;;;;14.18;8.07;;;11.00;99.90;;;;;;4136430;28;20033;-73
2021/10/10 03:44:38;;;;;;;13.13;7.90;;;10.90;99.90;;;;;;4133467;28;20053;-73
2021/10/10 03:46:38;;;;;;;13.73;8.15;;;10.90;99.90;;;;;;4133863;28;20062;-73
2021/10/10 03:48:39;;;;;;;11.43;7.72;;;10.90;99.90;;;;;;4129059;28;20034;-73
2021/10/10 03:50:39;;;;;;;10.05;7.50;;;10.90;99.90;;;;;;4127454;28;20039;-73
2021/10/10 03:52:42;;;;;;;13.13;8.10;;;10.90;99.90;;;;;;4134305;28;20038;-73
2021/10/10 03:57:02;;;;;;;12.70;7.13;;;10.90;99.90;;;;;;4133210;28;19921;-73
2021/10/10 03:59:02;;;;;;;15.90;8.20;;;10.90;99.90;;;;;;4131262;28;20034;-73
2021/10/10 04:01:03;;;;;;;12.27;7.63;;;10.90;99.90;;;;;;4132652;28;20037;-73
2021/10/10 04:03:06;;;;;;;12.50;7.95;;;10.90;99.90;;;;;;4127184;28;20105;-73
2021/10/10 04:05:45;;;;;;;12.52;7.68;;;10.90;99.90;;;;;;4127693;28;20028;-73
2021/10/10 04:07:36;;;;;;;10.82;6.70;;;10.80;99.90;;;;;;4126892;28;20058;-73
2021/10/10 04:09:37;;;;;;;11.70;6.90;;;10.90;99.90;;;;;;4134915;28;20079;-73
2021/10/10 04:11:37;;;;;;;10.15;6.72;;;10.90;99.90;;;;;;4123936;28;20046;-73
2021/10/10 04:13:38;;;;;;;12.15;7.15;;;10.80;99.90;;;;;;4129008;28;20065;-73
2021/10/10 04:15:39;;;;;;;12.18;7.45;;;10.80;99.90;;;;;;4139576;28;20552;-73
2021/10/10 04:17:41;;;;;;;9.68;7.05;;;10.80;99.90;;;;;;4140288;28;20053;-73
2021/10/10 04:19:41;;;;;;;18.10;7.18;;;10.80;99.90;;;;;;4139263;28;20041;-73
2021/10/10 04:21:42;;;;;;;10.70;6.85;;;10.80;99.90;;;;;;4138762;28;20065;-73
2021/10/10 04:23:43;;;;;;;11.43;6.97;;;10.80;99.90;;;;;;4140702;28;20586;-73
2021/10/10 04:25:43;;;;;;;11.18;7.57;;;10.70;99.90;;;;;;4139837;28;20034;-72
2021/10/10 04:27:44;;;;;;;11.55;6.75;;;10.70;99.90;;;;;;4137998;28;20114;-73
2021/10/10 04:29:45;;;;;;;11.27;6.07;;;10.70;99.90;;;;;;4136072;28;20445;-73
2021/10/10 04:31:45;;;;;;;9.48;6.07;;;10.60;99.90;;;;;;4137402;28;20382;-73
2021/10/10 04:33:46;;;;;;;10.43;6.38;;;10.60;99.90;;;;;;4140396;28;20030;-73
2021/10/10 04:35:48;;;;;;;10.00;6.32;;;10.60;99.90;;;;;;4139219;28;20485;-73
2021/10/10 04:37:49;;;;;;;9.57;6.32;;;10.60;99.90;;;;;;4135128;28;20077;-73
2021/10/10 04:39:49;;;;;;;10.18;6.38;;;10.60;99.90;;;;;;4137810;28;20037;-73
2021/10/10 04:41:50;;;;;;;11.00;7.05;;;10.50;99.90;;;;;;4135254;28;20029;-73
2021/10/10 04:43:50;;;;;;;11.57;7.03;;;10.50;99.90;;;;;;4138966;28;20104;-73
2021/10/10 04:45:51;;;;;;;9.20;6.28;;;10.50;99.90;;;;;;4138716;28;20516;-73
2021/10/10 04:47:52;;;;;;;11.13;6.28;;;10.50;99.90;;;;;;4138187;28;20030;-73
2021/10/10 04:49:52;;;;;;;10.80;7.22;;;10.50;99.90;;;;;;4138387;28;20037;-73
2021/10/10 04:51:53;;;;;;;13.63;7.03;;;10.50;99.90;;;;;;4136187;28;20050;-73
2021/10/10 04:53:53;;;;;;;13.43;6.65;;;10.50;99.90;;;;;;4139100;28;20028;-73
2021/10/10 04:55:54;;;;;;;12.93;7.85;;;10.50;99.90;;;;;;4136058;28;20034;-73
2021/10/10 04:57:54;;;;;;;12.70;7.20;;;10.50;99.90;;;;;;4135788;28;20042;-74
2021/10/10 04:59:55;;;;;;;10.73;6.85;;;10.40;99.90;;;;;;4138837;28;20749;-73
2021/10/10 05:01:56;;;;;;;9.70;6.68;;;10.50;99.90;;;;;;4138100;28;20026;-73
2021/10/10 05:03:56;;;;;;;11.52;6.80;;;10.50;99.90;;;;;;4136171;28;20054;-73
2021/10/10 05:05:57;;;;;;;10.20;6.38;;;10.50;99.90;;;;;;4134969;28;20041;-73
2021/10/10 05:07:57;;;;;;;12.00;7.00;;;10.50;99.90;;;;;;4135930;28;20092;-73
2021/10/10 05:09:58;;;;;;;9.48;6.43;;;10.50;99.90;;;;;;4137418;28;20042;-73
2021/10/10 05:11:59;;;;;;;9.07;5.88;;;10.50;99.90;;;;;;4118008;28;20034;-73
2021/10/10 05:13:59;;;;;;;8.82;5.43;;;10.50;99.90;;;;;;4135173;28;20120;-74
2021/10/10 05:16:00;;;;;;;8.85;5.82;;;10.40;99.90;;;;;;4137706;28;20026;-73
2021/10/10 05:18:01;;;;;;;11.10;5.78;;;10.30;99.90;;;;;;4136352;28;20026;-73
2021/10/10 05:20:02;;;;;;;10.82;6.10;;;10.30;99.90;;;;;;4135491;28;20036;-73
2021/10/10 05:22:03;;;;;;;9.88;6.32;;;10.30;99.90;;;;;;4137688;28;20080;-73
2021/10/10 05:24:09;;;;;;;9.63;6.30;;;10.20;99.90;;;;;;4128540;28;20038;-73
2021/10/10 05:26:11;;;;;;;10.27;6.20;;;10.20;99.90;;;;;;4134997;28;20134;-75
2021/10/10 05:28:12;;;;;;;11.55;6.55;;;10.20;99.90;;;;;;4119552;28;20034;-73
2021/10/10 05:30:13;;;;;;;10.75;6.40;;;10.20;99.90;;;;;;4146399;28;20053;-73
2021/10/10 05:32:13;;;;;;;9.90;6.53;;;10.20;99.90;;;;;;4141905;28;20042;-73
2021/10/10 05:34:14;;;;;;;10.68;6.53;;;10.30;99.90;;;;;;4134457;28;20030;-73
2021/10/10 05:36:15;;;;;;;11.88;6.80;;;10.30;99.90;;;;;;4136477;28;20076;-73
2021/10/10 05:38:15;;;;;;;11.80;6.47;;;10.20;99.90;;;;;;4137444;28;20100;-73
2021/10/10 05:40:16;;;;;;;10.88;6.70;;;10.30;99.90;;;;;;4141394;28;20140;-73
2021/10/10 05:42:17;;;;;;;9.13;6.38;;;10.20;99.90;;;;;;4138068;28;20117;-73
2021/10/10 05:44:18;;;;;;;11.02;7.18;;;10.30;99.90;;;;;;4137428;28;20049;-73
2021/10/10 05:46:19;;;;;;;8.95;6.60;;;10.20;99.90;;;;;;4130356;28;20083;-73
2021/10/10 05:48:19;;;;;;;9.77;6.25;;;10.20;99.90;;;;;;4135918;28;20430;-73
2021/10/10 05:50:20;;;;;;;10.77;6.75;;;10.20;99.90;;;;;;4136224;28;20045;-73
2021/10/10 05:52:24;;;;;;;10.43;6.93;;;10.20;99.90;;;;;;4136806;28;20038;-73
2021/10/10 05:54:27;;;;;;;12.23;7.40;;;10.20;99.90;;;;;;4135833;28;20154;-73
2021/10/10 05:56:28;;;;;;;11.52;7.47;;;10.20;99.90;;;;;;4136339;28;20034;-73
2021/10/10 05:58:31;;;;;;;11.05;7.22;;;10.20;99.90;;;;;;4138223;28;20100;-73
2021/10/10 06:00:32;;;;;;;11.52;6.95;;;10.20;99.90;;;;;;4139734;28;20033;-73
2021/10/10 06:02:33;;;;;;;11.00;5.82;;;10.20;99.90;;;;;;4136696;28;20034;-73
2021/10/10 06:04:34;;;;;;;11.18;6.15;;;10.20;99.90;;;;;;4137745;28;20048;-74
2021/10/10 06:06:34;;;;;;;9.10;6.03;;;10.20;99.90;;;;;;4138974;28;20058;-73
2021/10/10 06:08:35;;;;;;;11.07;6.03;;;10.20;99.90;;;;;;4136734;28;20038;-73
2021/10/10 06:10:36;;;;;;;9.60;6.00;;;10.10;99.90;;;;;;4135448;28;20062;-73
2021/10/10 06:12:38;;;;;;;9.43;6.50;;;10.10;99.90;;;;;;4139028;28;20042;-73
2021/10/10 06:14:39;;;;;;;10.45;6.22;;;10.10;99.90;;;;;;4134743;28;25586;-73
2021/10/10 06:16:40;;;;;;;9.88;6.82;;;10.10;99.90;;;;;;4137584;28;20029;-73
2021/10/10 06:18:41;;;;;;;11.25;7.05;;;10.10;99.90;;;;;;4138375;28;20088;-73
2021/10/10 06:20:41;;;;;;;10.27;6.05;;;10.10;99.90;;;;;;4134550;28;20042;-73
2021/10/10 06:22:43;;;;;;;9.52;6.53;;;10.10;99.90;;;;;;4134813;28;20049;-73
2021/10/10 06:24:43;;;;;;;11.05;6.13;;;10.10;99.90;;;;;;4136949;28;20054;-73
2021/10/10 06:26:44;;;;;;;10.55;6.18;;;10.00;99.90;;;;;;4140221;28;20094;-72
2021/10/10 06:28:44;;;;;;;8.98;5.90;;;10.10;99.90;;;;;;4138822;28;20465;-72
2021/10/10 06:30:45;;;;;;;12.80;6.95;;;10.10;99.90;;;;;;4137491;28;20474;-73
2021/10/10 06:32:46;;;;;;;12.00;6.72;;;10.10;99.90;;;;;;4134183;28;20047;-73
2021/10/10 06:34:47;;;;;;;12.57;6.50;;;10.10;99.90;;;;;;4138960;28;20049;-73
2021/10/10 06:36:47;;;;;;;9.68;6.03;;;10.00;99.90;;;;;;4136137;28;20038;-73
2021/10/10 06:38:49;;;;;;;13.02;6.53;;;10.10;99.90;;;;;;4120080;28;20031;-73
2021/10/10 06:40:49;;;;;;;10.75;6.90;;;10.00;99.90;;;;;;4138850;28;20042;-73
2021/10/10 06:42:50;;;;;;;9.75;6.38;;;10.10;99.90;;;;;;4124869;28;20122;-74
2021/10/10 06:44:50;;;;;;;11.32;6.63;;;10.10;99.90;;;;;;4125000;28;20034;-73
2021/10/10 06:46:51;;;;;;;8.65;5.63;;;10.00;99.90;;;;;;4125022;28;20042;-74
2021/10/10 06:48:52;;;;;;;9.50;6.28;;;10.10;99.90;;;;;;4135733;28;20043;-73
2021/10/10 06:50:52;;;;;;;10.27;6.85;;;10.10;99.90;;;;;;4138481;28;20037;-74
2021/10/10 06:52:53;;;;;;;11.65;7.45;;;10.10;99.90;;;;;;4136705;28;20109;-72
2021/10/10 06:54:54;;;;;;;11.90;7.78;;;10.20;99.90;;;;;;4135865;28;20022;-72
2021/10/10 06:56:54;;;;;;;11.73;6.75;;;10.10;99.90;;;;;;4136460;28;20148;-72
2021/10/10 06:58:55;;;;;;;11.20;7.55;;;10.20;99.90;;;;;;4136243;28;20605;-72
2021/10/10 07:00:56;;;;;;;10.13;7.20;;;10.20;99.90;;;;;;4136685;28;20041;-72
2021/10/10 07:02:58;;;;;;;13.15;7.38;;;10.20;99.90;;;;;;4137789;28;20035;-71
2021/10/10 07:05:01;;;;;;;10.73;6.37;;;10.20;99.90;;;;;;4134398;28;20066;-72
2021/10/10 07:07:02;;;;;;;9.75;6.45;;;10.30;99.90;;;;;;4136616;28;20720;-72
2021/10/10 07:09:02;;;;;;;10.10;7.22;;;10.30;99.90;;;;;;4134365;28;20121;-72
2021/10/10 07:11:03;;;;;;;12.30;7.88;;;10.20;99.90;;;;;;4128041;28;20033;-72
2021/10/10 07:13:04;;;;;;;13.65;7.68;;;10.20;99.90;;;;;;4125358;28;20034;-72
2021/10/10 07:15:10;;;;;;;11.65;7.60;;;10.30;99.90;;;;;;4124499;28;20030;-72
2021/10/10 07:17:11;;;;;;;14.05;8.00;;;10.30;99.90;;;;;;4135454;28;20040;-72
2021/10/10 07:19:12;;;;;;;13.27;8.07;;;10.30;99.90;;;;;;4132554;28;20121;-72
2021/10/10 07:25:48;;;;;;;15.48;9.27;;;10.30;99.90;;;;;;4134775;28;20030;-72
2021/10/10 07:27:49;;;;;;;16.65;9.82;;;10.40;99.90;;;;;;4133694;28;20130;-72
2021/10/10 07:29:50;;;;;;;14.20;9.18;;;10.40;99.90;;;;;;4135051;28;20038;-72
2021/10/10 07:31:50;;;;;;;15.02;9.35;;;10.40;99.90;;;;;;4122494;28;20041;-72
2021/10/10 07:33:51;;;;;;;14.68;9.25;;;10.40;99.90;;;;;;4139999;28;20402;-72
2021/10/10 07:35:51;;;;;;;14.55;8.45;;;10.40;99.90;;;;;;4133203;28;20030;-72
2021/10/10 07:37:52;;;;;;;15.20;8.90;;;10.50;99.90;;;;;;4137289;28;20030;-72
2021/10/10 07:39:53;;;;;;;17.48;9.80;;;10.60;99.90;;;;;;4132945;28;20047;-72
2021/10/10 07:41:54;;;;;;;15.93;9.77;;;10.70;99.90;;;;;;4135255;28;20034;-72
2021/10/10 07:43:54;;;;;;;20.55;10.20;;;10.90;99.90;;;;;;4137402;28;20026;-72
2021/10/10 07:46:05;;;;;;;18.40;11.32;;;11.10;99.90;;;;;;4135784;28;20092;-72
2021/10/10 07:48:05;;;;;;;18.23;10.18;;;11.30;99.90;;;;;;4135948;28;20038;-72
2021/10/10 07:50:07;;;;;;;18.08;8.90;;;11.50;99.90;;;;;;4120931;28;20037;-72
2021/10/10 07:52:07;;;;;;;15.48;9.70;;;11.80;99.90;;;;;;4137958;28;20034;-72
2021/10/10 07:54:08;;;;;;;13.48;8.75;;;12.10;99.90;;;;;;4137897;28;20121;-72
2021/10/10 07:56:08;;;;;;;15.27;8.60;;;12.60;99.90;;;;;;4140121;28;20430;-72
2021/10/10 07:58:09;;;;;;;10.10;7.65;;;13.10;99.90;;;;;;4135924;28;20106;-72
2021/10/10 08:00:11;;;;;;;15.07;8.88;;;13.50;99.90;;;;;;4140095;28;20038;-72
2021/10/10 08:02:11;;;;;;;14.88;9.05;;;13.80;99.90;;;;;;4137950;28;20045;-72
2021/10/10 08:04:12;;;;;;;12.57;8.50;;;14.20;99.90;;;;;;4140856;28;20042;-72
2021/10/10 08:06:12;;;;;;;20.17;9.10;;;14.60;99.90;;;;;;4137860;28;20039;-72
2021/10/10 08:08:13;;;;;;;13.75;8.38;;;14.80;99.90;;;;;;4137533;28;20141;-72
2021/10/10 08:10:14;;;;;;;11.77;8.13;;;15.00;99.90;;;;;;4136927;28;20034;-72
2021/10/10 08:12:14;;;;;;;14.00;8.38;;;15.10;99.90;;;;;;4140536;28;20041;-72
2021/10/10 08:14:15;;;;;;;14.30;8.60;;;15.30;99.90;;;;;;4140421;28;20037;-72
2021/10/10 08:16:16;;;;;;;13.73;8.75;;;15.50;99.90;;;;;;4134062;28;20476;-72
2021/10/10 08:18:17;;;;;;;13.40;8.63;;;15.60;99.90;;;;;;4141200;28;20034;-72
2021/10/10 08:20:18;;;;;;;12.73;8.68;;;15.60;99.90;;;;;;4137894;28;20722;-72
2021/10/10 08:22:19;;;;;;;13.45;9.20;;;15.60;99.90;;;;;;4136900;28;20041;-72
2021/10/10 08:24:21;;;;;;;13.10;8.07;;;15.60;99.90;;;;;;4135919;28;20033;-72
2021/10/10 08:26:22;;;;;;;17.80;9.70;;;15.50;99.90;;;;;;4136749;28;20036;-72
2021/10/10 08:28:25;;;;;;;14.07;8.98;;;15.40;99.90;;;;;;4137092;28;20533;-72
2021/10/10 08:30:26;;;;;;;11.98;8.10;;;15.30;99.90;;;;;;4138067;28;20170;-72
2021/10/10 08:32:26;;;;;;;15.98;9.00;;;15.30;99.90;;;;;;4140377;28;20054;-72
2021/10/10 08:34:27;;;;;;;14.73;9.25;;;15.30;99.90;;;;;;4137923;28;20714;-72
2021/10/10 08:36:27;;;;;;;14.50;9.23;;;15.30;99.90;;;;;;4139807;28;20030;-72
2021/10/10 08:38:28;;;;;;;14.40;9.10;;;15.30;99.90;;;;;;4136506;28;21143;-72
2021/10/10 08:40:29;;;;;;;16.65;9.60;;;15.30;99.90;;;;;;4118539;28;20153;-72
2021/10/10 08:42:33;;;;;;;19.55;9.75;;;15.10;99.90;;;;;;4139327;28;20038;-72
2021/10/10 08:44:37;;;;;;;16.00;9.38;;;15.00;99.90;;;;;;4144654;28;20038;-72
2021/10/10 08:46:39;;;;;;;13.45;9.20;;;15.00;99.90;;;;;;4138937;28;20523;-72
2021/10/10 08:48:40;;;;;;;19.33;10.60;;;15.10;99.90;;;;;;4137593;28;20077;-72
2021/10/10 08:50:41;;;;;;;13.68;8.98;;;15.20;99.90;;;;;;4139545;28;20300;-70
2021/10/10 08:52:44;;;;;;;14.50;8.93;;;15.30;99.90;;;;;;4140922;28;20049;-72
2021/10/10 08:54:44;;;;;;;15.07;9.18;;;15.30;99.90;;;;;;4136853;28;20034;-72
2021/10/10 08:56:45;;;;;;;15.52;10.18;;;15.30;99.90;;;;;;4137567;28;20034;-72
2021/10/10 08:58:47;;;;;;;14.27;9.23;;;15.40;99.90;;;;;;4140971;28;20116;-72
2021/10/10 09:01:02;;;;;;;15.68;9.63;;;15.50;99.90;;;;;;4137828;28;20061;-72
2021/10/10 09:03:10;;;;;;;14.07;9.70;;;15.50;99.90;;;;;;4138520;28;20136;-72
2021/10/10 09:05:11;;;;;;;14.13;9.30;;;15.50;99.90;;;;;;4137211;28;20037;-72
2021/10/10 09:07:12;;;;;;;19.40;11.23;;;15.60;99.90;;;;;;4139064;28;21508;-72
2021/10/10 09:09:29;;;;;;;17.27;10.27;;;15.60;99.90;;;;;;4137334;28;20036;-71
2021/10/10 09:11:43;;;;;;;16.02;10.10;;;15.70;99.90;;;;;;4135844;28;20060;-71
2021/10/10 09:13:44;;;;;;;17.17;10.30;;;15.70;99.90;;;;;;4137714;28;20034;-71
2021/10/10 09:15:49;;;;;;;19.05;9.95;;;15.80;99.90;;;;;;4137760;28;20040;-72
2021/10/10 09:17:57;;;;;;;17.13;9.65;;;15.90;99.90;;;;;;4137029;28;20137;-71
2021/10/10 09:19:59;;;;;;;13.77;9.68;;;15.90;99.90;;;;;;4133756;28;20101;-72
2021/10/10 09:22:01;;;;;;;15.35;9.75;;;15.90;99.90;;;;;;4140200;28;20057;-71
2021/10/10 09:24:02;;;;;;;;;;;15.90;99.90;;;;;;4137149;28;20657;-71
2021/10/10 09:26:03;;;;;;;14.82;9.52;;;15.90;99.90;;;;;;4139027;28;19921;-72
2021/10/10 09:28:25;;;;;;;16.85;10.00;;;16.00;99.90;;;;;;4136148;28;20034;-72
2021/10/10 09:30:26;;;;;;;15.00;9.55;;;16.00;99.90;;;;;;4148944;28;20120;-72
2021/10/10 09:32:27;;;;;;;15.52;10.38;;;16.00;99.90;;;;;;4136277;28;20367;-72
2021/10/10 09:34:28;;;;;;;18.08;10.77;;;16.00;99.90;;;;;;4135929;28;20108;-71
2021/10/10 09:36:29;;;;;;;19.65;11.55;;;16.10;99.90;;;;;;4137611;28;22359;-71
2021/10/10 09:38:39;;;;;;;21.50;12.63;;;16.10;99.90;;;;;;4137942;28;20034;-71
2021/10/10 09:40:52;;;;;;;18.88;12.55;;;16.10;99.90;;;;;;4133971;28;20034;-72
2021/10/10 09:43:01;;;;;;;18.92;12.85;;;16.10;99.90;;;;;;4129881;28;20057;-71
2021/10/10 09:45:14;;;;;;;18.33;12.45;;;16.10;99.90;;;;;;4136353;28;20538;-71
2021/10/10 09:47:17;;;;;;;25.38;13.98;;;16.10;99.90;;;;;;4138237;28;20049;-71
2021/10/10 09:49:25;;;;;;;23.05;14.15;;;16.10;99.90;;;;;;4134367;28;20081;-71
2021/10/10 09:51:28;;;;;;;22.98;14.07;;;16.10;99.90;;;;;;4134760;28;20121;-71
2021/10/10 09:53:32;;;;;;;20.65;12.73;;;16.10;99.90;;;;;;4134428;28;20256;-71
2021/10/10 09:55:35;;;;;;;21.30;13.38;;;16.20;99.90;;;;;;4134904;28;20072;-71
2021/10/10 09:57:43;;;;;;;;;;;16.20;99.90;;;;;;4139765;28;20041;-71
2021/10/10 09:59:44;;;;;;;22.35;14.43;;;16.20;99.90;;;;;;4137344;28;20044;-72
2021/10/10 10:01:45;;;;;;;25.05;14.85;;;16.20;99.90;;;;;;4140670;28;20042;-71
2021/10/10 10:04:03;;;;;;;25.55;15.15;;;16.20;99.90;;;;;;4139419;28;20037;-71
2021/10/10 10:06:07;;;;;;;24.83;15.77;;;16.30;99.90;;;;;;4136928;28;20497;-71
2021/10/10 10:08:07;;;;;;;24.80;15.85;;;16.30;99.90;;;;;;4131556;28;20034;-71
2021/10/10 10:10:08;;;;;;;20.52;13.63;;;16.20;99.90;;;;;;4137256;28;20121;-71
2021/10/10 10:12:09;;;;;;;18.92;13.35;;;16.20;99.90;;;;;;4142578;28;20099;-71
2021/10/10 10:14:12;;;;;;;21.13;13.93;;;16.20;99.90;;;;;;4138959;28;20042;-71
2021/10/10 10:16:15;;;;;;;23.85;15.32;;;16.30;99.90;;;;;;4137457;28;20050;-71
2021/10/10 10:18:16;;;;;;;22.70;14.02;;;16.30;99.90;;;;;;4137199;28;20107;-71
2021/10/10 10:20:16;;;;;;;23.27;14.70;;;16.30;99.90;;;;;;4134253;28;20045;-71
2021/10/10 10:22:17;;;;;;;25.17;15.55;;;16.30;99.90;;;;;;4134515;28;20087;-71
2021/10/10 10:24:20;;;;;;;22.70;14.70;;;16.30;99.90;;;;;;4132667;28;20437;-71
2021/10/10 10:26:21;;;;;;;24.40;15.77;;;16.30;99.90;;;;;;4132308;28;20042;-71
2021/10/10 10:28:22;;;;;;;26.30;16.08;;;16.30;99.90;;;;;;4131391;28;20042;-71
2021/10/10 10:30:24;;;;;;;23.45;14.75;;;16.30;99.90;;;;;;4134021;28;21250;-71
2021/10/10 10:32:29;;;;;;;23.05;14.90;;;16.30;99.90;;;;;;4133578;28;20092;-71